createdAt,value
2022-11-19T00:02:00.219Z,4.05
2022-11-19T00:04:29.383Z,3.75
2022-11-19T00:06:57.165Z,3.90
2022-11-19T00:09:24.784Z,4.38
2022-11-19T00:12:10.213Z,4.03
2022-11-19T00:14:37.947Z,3.78
2022-11-19T00:17:05.536Z,4.22
2022-11-19T00:19:34.569Z,4.22
2022-11-19T00:22:02.158Z,4.22
2022-11-19T00:24:29.940Z,5.15
2022-11-19T00:26:57.509Z,4.68
2022-11-19T00:29:25.650Z,3.75
2022-11-19T00:31:53.223Z,4.68
2022-11-19T00:34:20.855Z,4.82
2022-11-19T00:36:50.798Z,4.18
2022-11-19T00:39:19.014Z,4.55
2022-11-19T00:41:47.486Z,4.25
2022-11-19T00:44:15.069Z,4.55
2022-11-19T00:46:42.597Z,4.55
2022-11-19T00:49:10.243Z,5.05
2022-11-19T00:51:37.820Z,4.45
2022-11-19T00:54:06.738Z,4.53
2022-11-19T00:56:34.424Z,4.70
2022-11-19T00:59:02.104Z,5.07
2022-11-19T01:01:29.898Z,4.63
2022-11-19T01:03:57.804Z,5.13
2022-11-19T01:06:26.829Z,4.43
2022-11-19T01:08:54.936Z,4.25
2022-11-19T01:11:25.535Z,4.60
2022-11-19T01:13:53.461Z,4.75
2022-11-19T01:16:23.067Z,4.45
2022-11-19T01:18:51.926Z,4.28
2022-11-19T01:21:21.899Z,5.00
2022-11-19T01:23:50.319Z,4.45
2022-11-19T01:26:18.424Z,4.85
2022-11-19T01:28:47.751Z,5.28
2022-11-19T01:31:17.965Z,4.50
2022-11-19T01:33:45.793Z,3.78
2022-11-19T01:36:16.161Z,4.95
2022-11-19T01:38:44.328Z,4.65
2022-11-19T01:41:12.012Z,4.85
2022-11-19T01:43:45.924Z,4.18
2022-11-19T01:46:17.477Z,4.07
2022-11-19T01:48:48.355Z,4.72
2022-11-19T01:51:19.662Z,5.10
2022-11-19T01:53:50.290Z,5.15
2022-11-19T01:56:20.072Z,4.57
2022-11-19T01:58:53.639Z,5.30
2022-11-19T02:01:23.452Z,4.97
2022-11-19T02:03:52.655Z,5.18
2022-11-19T02:06:20.323Z,4.78
2022-11-19T02:08:51.019Z,5.10
2022-11-19T02:11:51.861Z,5.50
2022-11-19T02:14:38.975Z,5.65
2022-11-19T02:17:18.831Z,5.32
2022-11-19T02:20:14.160Z,6.40
2022-11-19T02:23:02.865Z,7.05
2022-11-19T02:25:42.501Z,7.95
2022-11-19T02:28:29.845Z,8.77
2022-11-19T02:31:06.709Z,10.98
2022-11-19T02:33:41.954Z,14.10
2022-11-19T02:36:15.651Z,25.90
2022-11-19T02:38:49.852Z,25.17
2022-11-19T02:41:35.176Z,22.40
2022-11-19T02:44:29.214Z,17.65
2022-11-19T02:47:00.328Z,18.45
2022-11-19T02:49:32.427Z,20.88
2022-11-19T02:52:00.839Z,20.48
2022-11-19T02:54:28.937Z,17.88
2022-11-19T02:56:58.847Z,17.58
2022-11-19T02:59:51.885Z,15.23
2022-11-19T03:02:42.760Z,13.70
2022-11-19T03:05:15.544Z,10.90
2022-11-19T03:07:43.512Z,10.75
2022-11-19T03:10:12.300Z,9.82
2022-11-19T03:12:48.168Z,10.20
2022-11-19T03:15:44.345Z,11.57
2022-11-19T03:18:17.383Z,11.32
2022-11-19T03:20:50.068Z,10.77
2022-11-19T03:23:23.164Z,10.10
2022-11-19T03:25:55.377Z,9.57
2022-11-19T03:28:26.546Z,9.32
2022-11-19T03:30:57.458Z,11.27
2022-11-19T03:33:29.342Z,11.32
2022-11-19T03:36:00.831Z,10.43
2022-11-19T03:38:32.466Z,8.40
2022-11-19T03:41:01.955Z,8.48
2022-11-19T03:43:35.451Z,8.15
2022-11-19T03:46:06.974Z,8.73
2022-11-19T03:48:38.122Z,7.95
2022-11-19T03:51:11.549Z,7.72
2022-11-19T03:53:39.235Z,7.03
2022-11-19T03:56:11.378Z,7.05
2022-11-19T03:58:40.523Z,6.18
2022-11-19T04:01:09.108Z,7.40
2022-11-19T04:03:38.072Z,9.35
2022-11-19T04:06:06.756Z,10.27
2022-11-19T04:08:34.477Z,15.13
2022-11-19T04:13:28.955Z,9.80
2022-11-19T04:15:56.842Z,9.68
2022-11-19T04:18:24.576Z,8.77
2022-11-19T04:20:53.640Z,8.13
2022-11-19T04:23:21.248Z,7.78
2022-11-19T04:25:48.857Z,6.38
2022-11-19T04:28:16.723Z,6.65
2022-11-19T04:30:44.627Z,7.10
2022-11-19T04:33:12.379Z,5.78
2022-11-19T04:35:40.082Z,5.63
2022-11-19T04:38:09.145Z,6.60
2022-11-19T04:40:36.938Z,5.88
2022-11-19T04:43:04.581Z,5.72
2022-11-19T04:45:32.420Z,6.22
2022-11-19T04:48:00.239Z,6.10
2022-11-19T04:50:27.965Z,5.75
2022-11-19T04:52:55.800Z,6.00
2022-11-19T04:55:24.888Z,5.70
2022-11-19T04:57:53.387Z,5.47
2022-11-19T05:00:21.350Z,6.30
2022-11-19T05:02:49.081Z,5.30
2022-11-19T05:05:16.765Z,5.90
2022-11-19T05:07:44.439Z,6.00
2022-11-19T05:10:12.295Z,5.32
2022-11-19T05:12:41.320Z,5.97
2022-11-19T05:15:10.228Z,6.28
2022-11-19T05:17:37.949Z,6.53
2022-11-19T05:20:06.677Z,6.22
2022-11-19T05:22:34.464Z,9.75
2022-11-19T05:25:02.195Z,13.68
2022-11-19T05:27:29.898Z,9.23
2022-11-19T05:29:59.063Z,7.90
2022-11-19T05:32:26.855Z,7.53
2022-11-19T05:34:54.998Z,7.47
2022-11-19T05:37:22.746Z,6.60
2022-11-19T05:39:50.504Z,6.15
2022-11-19T05:42:19.641Z,5.18
2022-11-19T05:44:49.373Z,5.97
2022-11-19T05:47:19.082Z,6.05
2022-11-19T05:49:46.801Z,5.15
2022-11-19T05:52:14.433Z,5.95
2022-11-19T05:54:42.885Z,5.53
2022-11-19T05:57:10.471Z,5.88
2022-11-19T05:59:43.541Z,5.90
2022-11-19T06:02:12.184Z,6.65
2022-11-19T06:04:41.419Z,5.40
2022-11-19T06:07:09.198Z,5.90
2022-11-19T06:09:36.849Z,5.82
2022-11-19T06:12:05.089Z,5.88
2022-11-19T06:14:32.815Z,6.53
2022-11-19T06:17:02.300Z,6.35
2022-11-19T06:19:30.016Z,5.78
2022-11-19T06:21:59.452Z,6.63
2022-11-19T06:24:27.350Z,7.40
2022-11-19T06:26:55.027Z,7.65
2022-11-19T06:29:22.856Z,12.43
2022-11-19T06:31:50.515Z,9.20
2022-11-19T06:34:18.252Z,7.15
2022-11-19T06:36:50.358Z,6.63
2022-11-19T06:39:20.437Z,5.93
2022-11-19T06:41:49.411Z,7.30
2022-11-19T06:44:17.164Z,7.93
2022-11-19T06:46:44.776Z,7.05
2022-11-19T06:49:18.388Z,6.03
2022-11-19T06:51:47.605Z,9.02
2022-11-19T06:54:15.395Z,6.47
2022-11-19T06:56:44.469Z,7.10
2022-11-19T06:59:12.265Z,6.05
2022-11-19T07:01:39.984Z,5.63
2022-11-19T07:04:07.693Z,6.97
2022-11-19T07:07:28.584Z,6.65
2022-11-19T07:09:56.417Z,5.80
2022-11-19T07:12:25.504Z,6.82
2022-11-19T07:14:53.240Z,8.32
2022-11-19T07:17:20.887Z,7.72
2022-11-19T07:19:48.863Z,10.63
2022-11-19T07:22:16.598Z,7.97
2022-11-19T07:24:44.896Z,6.95
2022-11-19T07:27:12.475Z,6.30
2022-11-19T07:29:41.669Z,7.15
2022-11-19T07:32:09.880Z,5.95
2022-11-19T07:34:37.679Z,5.97
2022-11-19T07:37:05.477Z,7.18
2022-11-19T07:39:33.214Z,6.10
2022-11-19T07:42:18.289Z,5.68
2022-11-19T07:44:53.525Z,4.75
2022-11-19T07:47:22.603Z,5.38
2022-11-19T07:49:50.362Z,6.18
2022-11-19T07:52:18.263Z,6.38
2022-11-19T07:54:46.114Z,6.35
2022-11-19T07:57:13.969Z,6.18
2022-11-19T07:59:41.776Z,6.68
2022-11-19T08:02:13.227Z,6.20
2022-11-19T08:04:41.131Z,7.93
2022-11-19T08:07:09.570Z,5.90
2022-11-19T08:09:37.329Z,5.85
2022-11-19T08:12:06.844Z,5.40
2022-11-19T08:14:34.812Z,4.10
2022-11-19T08:17:22.657Z,6.10
2022-11-19T08:19:51.826Z,5.80
2022-11-19T08:22:19.589Z,5.55
2022-11-19T08:24:47.197Z,4.68
2022-11-19T08:27:15.425Z,4.80
2022-11-19T08:29:45.445Z,4.82
2022-11-19T08:32:17.126Z,3.90
2022-11-19T08:35:26.623Z,4.03
2022-11-19T08:37:54.548Z,3.97
2022-11-19T08:40:22.321Z,4.82
2022-11-19T08:43:01.745Z,4.05
2022-11-19T08:45:30.959Z,4.53
2022-11-19T08:48:00.527Z,4.70
2022-11-19T08:50:30.323Z,4.15
2022-11-19T08:52:59.097Z,4.25
2022-11-19T08:55:27.827Z,7.70
2022-11-19T08:58:00.947Z,4.43
2022-11-19T09:00:29.373Z,4.45
2022-11-19T09:02:57.235Z,4.63
2022-11-19T09:05:25.085Z,5.22
2022-11-19T09:07:55.826Z,4.30
2022-11-19T09:10:23.502Z,4.60
2022-11-19T09:12:52.919Z,3.75
2022-11-19T09:15:20.981Z,4.78
2022-11-19T09:17:48.623Z,4.22
2022-11-19T09:20:16.863Z,4.22
2022-11-19T09:22:44.499Z,4.30
2022-11-19T09:25:14.957Z,4.55
2022-11-19T09:27:42.571Z,4.53
2022-11-19T09:30:10.657Z,4.97
2022-11-19T09:32:39.112Z,5.25
2022-11-19T09:35:07.656Z,4.28
2022-11-19T09:37:36.119Z,5.28
2022-11-19T09:40:04.667Z,5.25
2022-11-19T09:42:40.351Z,4.90
2022-11-19T09:45:20.194Z,4.13
2022-11-19T09:48:01.357Z,4.25
2022-11-19T09:50:32.013Z,4.70
2022-11-19T09:53:03.070Z,5.03
2022-11-19T09:55:33.180Z,4.97
2022-11-19T09:58:05.460Z,4.80
2022-11-19T10:00:33.616Z,5.38
2022-11-19T10:03:06.918Z,5.20
2022-11-19T10:05:42.717Z,4.53
2022-11-19T10:08:24.692Z,4.90
2022-11-19T10:11:04.958Z,5.50
2022-11-19T10:13:43.702Z,4.80
2022-11-19T10:16:28.831Z,4.50
2022-11-19T10:19:08.207Z,5.13
2022-11-19T10:21:43.956Z,4.82
2022-11-19T10:24:18.219Z,4.30
2022-11-19T10:26:50.267Z,4.47
2022-11-19T10:29:22.800Z,4.20
2022-11-19T10:31:52.480Z,4.88
2022-11-19T10:34:24.102Z,4.05
2022-11-19T10:36:56.436Z,4.18
2022-11-19T10:39:29.808Z,4.32
2022-11-19T10:42:01.721Z,4.43
2022-11-19T10:44:41.052Z,4.35
2022-11-19T10:47:13.694Z,4.28
2022-11-19T10:49:43.350Z,4.28
2022-11-19T10:52:19.222Z,4.60
2022-11-19T10:54:48.575Z,4.38
2022-11-19T10:57:19.933Z,4.18
2022-11-19T10:59:52.210Z,3.83
2022-11-19T11:02:28.222Z,3.80
2022-11-19T11:05:09.648Z,3.83
2022-11-19T11:07:55.551Z,3.38
2022-11-19T11:10:33.843Z,3.78
2022-11-19T11:13:26.278Z,4.03
2022-11-19T11:15:57.469Z,3.88
2022-11-19T11:18:27.555Z,3.90
2022-11-19T11:20:58.534Z,3.28
2022-11-19T11:23:28.670Z,3.30
2022-11-19T11:26:05.086Z,3.50
2022-11-19T11:28:33.264Z,3.03
2022-11-19T11:31:07.680Z,2.80
2022-11-19T11:33:40.073Z,3.53
2022-11-19T11:36:10.917Z,2.88
2022-11-19T11:38:44.930Z,2.88
2022-11-19T11:42:03.757Z,2.42
2022-11-19T11:44:21.904Z,2.67
2022-11-19T11:46:52.522Z,2.60
2022-11-19T11:49:28.247Z,2.50
2022-11-19T11:52:02.527Z,3.20
2022-11-19T11:54:30.372Z,2.28
2022-11-19T11:57:14.679Z,2.63
2022-11-19T11:59:42.319Z,3.97
2022-11-19T12:02:23.210Z,2.00
2022-11-19T12:04:52.263Z,1.85
2022-11-19T12:07:38.694Z,1.77
2022-11-19T12:10:19.044Z,1.85
2022-11-19T12:12:56.208Z,1.60
2022-11-19T12:15:33.604Z,1.65
2022-11-19T12:18:13.190Z,1.23
2022-11-19T12:20:46.590Z,1.60
2022-11-19T12:23:32.405Z,1.60
2022-11-19T12:26:12.934Z,1.50
2022-11-19T12:29:05.438Z,1.50
2022-11-19T12:31:50.862Z,1.27
2022-11-19T12:34:35.690Z,1.35
2022-11-19T12:37:15.323Z,1.20
2022-11-19T12:39:47.941Z,1.65
2022-11-19T12:42:34.753Z,1.30
2022-11-19T12:45:07.391Z,1.63
2022-11-19T12:47:50.948Z,1.77
2022-11-19T12:50:26.216Z,1.52
2022-11-19T12:53:24.590Z,1.90
2022-11-19T12:56:02.601Z,1.67
2022-11-19T12:58:43.805Z,1.50
2022-11-19T13:01:16.245Z,1.42
2022-11-19T13:03:53.160Z,1.80
2022-11-19T13:06:25.865Z,1.38
2022-11-19T13:08:58.833Z,1.48
2022-11-19T13:11:36.263Z,1.70
2022-11-19T13:14:06.754Z,1.92
2022-11-19T13:16:35.975Z,2.03
2022-11-19T13:19:15.799Z,1.10
2022-11-19T13:21:50.538Z,1.40
2022-11-19T13:24:28.700Z,1.52
2022-11-19T13:27:00.559Z,1.88
2022-11-19T13:29:36.247Z,1.42
2022-11-19T13:32:10.249Z,1.83
2022-11-19T13:34:45.311Z,1.67
2022-11-19T13:37:18.861Z,1.60
2022-11-19T13:39:49.554Z,1.30
2022-11-19T13:42:37.288Z,1.55
2022-11-19T13:45:05.959Z,1.20
2022-11-19T13:47:42.947Z,1.42
2022-11-19T13:50:17.972Z,1.50
2022-11-19T13:52:54.960Z,1.67
2022-11-19T13:55:32.358Z,1.80
2022-11-19T13:58:23.033Z,1.70
2022-11-19T14:01:18.814Z,1.65
2022-11-19T14:03:58.574Z,1.27
2022-11-19T14:06:49.887Z,1.98
2022-11-19T14:09:34.066Z,1.30
2022-11-19T14:12:23.550Z,1.58
2022-11-19T14:15:23.054Z,1.55
2022-11-19T14:18:15.697Z,1.30
2022-11-19T14:21:03.047Z,1.70
2022-11-19T14:24:01.086Z,1.40
2022-11-19T14:27:02.681Z,1.40
2022-11-19T14:29:59.493Z,1.27
2022-11-19T14:32:32.042Z,1.77
2022-11-19T14:35:36.561Z,1.58
2022-11-19T14:38:37.467Z,1.27
2022-11-19T14:41:19.098Z,1.90
2022-11-19T14:44:09.494Z,1.95
2022-11-19T14:46:43.184Z,2.30
2022-11-19T14:49:25.720Z,1.77
2022-11-19T14:51:55.997Z,1.75
2022-11-19T14:54:37.887Z,2.30
2022-11-19T14:57:17.650Z,1.83
2022-11-19T14:59:50.863Z,1.73
2022-11-19T15:02:27.059Z,1.65
2022-11-19T15:05:00.526Z,1.67
2022-11-19T15:07:42.161Z,1.60
2022-11-19T15:10:32.271Z,1.60
2022-11-19T15:13:17.316Z,1.70
2022-11-19T15:15:47.000Z,1.80
2022-11-19T15:18:39.761Z,1.98
2022-11-19T15:21:22.499Z,2.00
2022-11-19T15:24:04.439Z,2.10
2022-11-19T15:26:45.371Z,2.22
2022-11-19T15:29:22.645Z,2.22
2022-11-19T15:32:16.247Z,2.75
2022-11-19T15:35:10.265Z,2.47
2022-11-19T15:37:46.835Z,1.75
2022-11-19T15:40:18.385Z,2.05
2022-11-19T15:42:54.180Z,2.10
2022-11-19T15:45:24.769Z,2.20
2022-11-19T15:47:55.752Z,2.60
2022-11-19T15:50:27.241Z,2.30
2022-11-19T15:52:59.180Z,2.55
2022-11-19T15:55:28.980Z,2.40
2022-11-19T15:58:00.272Z,2.40
2022-11-19T16:00:28.111Z,2.88
2022-11-19T16:02:55.992Z,2.65
2022-11-19T16:05:28.118Z,2.80
2022-11-19T16:07:59.777Z,3.05
2022-11-19T16:10:30.611Z,2.90
2022-11-19T16:13:17.545Z,2.90
2022-11-19T16:16:03.675Z,2.75
2022-11-19T16:18:31.415Z,3.25
2022-11-19T16:21:00.646Z,3.42
2022-11-19T16:23:29.091Z,3.85
2022-11-19T16:26:02.358Z,3.40
2022-11-19T16:28:31.203Z,3.63
2022-11-19T16:31:01.992Z,3.72
2022-11-19T16:33:31.696Z,3.42
2022-11-19T16:36:15.438Z,3.80
2022-11-19T16:38:47.830Z,3.80
2022-11-19T16:41:31.480Z,3.92
2022-11-19T16:43:59.904Z,3.95
2022-11-19T16:46:30.392Z,3.80
2022-11-19T16:49:00.669Z,3.40
2022-11-19T16:51:39.570Z,3.95
2022-11-19T16:54:12.102Z,3.47
2022-11-19T16:56:43.479Z,3.90
2022-11-19T16:59:19.507Z,4.28
2022-11-19T17:01:52.853Z,4.05
2022-11-19T17:04:21.424Z,4.07
2022-11-19T17:06:51.380Z,4.32
2022-11-19T17:09:47.805Z,4.50
2022-11-19T17:12:29.026Z,4.45
2022-11-19T17:15:07.524Z,4.22
2022-11-19T17:17:41.363Z,4.32
2022-11-19T17:21:03.570Z,4.30
2022-11-19T17:23:34.812Z,4.60
2022-11-19T17:26:06.600Z,4.90
2022-11-19T17:28:38.067Z,4.10
2022-11-19T17:31:14.589Z,4.45
2022-11-19T17:33:50.873Z,4.78
2022-11-19T17:36:18.906Z,4.68
2022-11-19T17:38:47.843Z,5.03
2022-11-19T17:41:37.913Z,5.35
2022-11-19T17:44:23.998Z,4.88
2022-11-19T17:46:51.628Z,4.63
2022-11-19T17:49:20.214Z,4.97
2022-11-19T17:51:56.407Z,5.63
2022-11-19T17:54:29.462Z,5.00
2022-11-19T17:56:57.240Z,4.75
2022-11-19T17:59:25.281Z,4.70
2022-11-19T18:01:53.509Z,5.10
2022-11-19T18:04:21.523Z,5.15
2022-11-19T18:06:49.581Z,4.70
2022-11-19T18:09:17.266Z,5.00
2022-11-19T18:11:46.226Z,5.40
2022-11-19T18:14:14.030Z,4.95
2022-11-19T18:16:43.517Z,5.20
2022-11-19T18:19:13.444Z,5.15
2022-11-19T18:21:42.480Z,5.00
2022-11-19T18:24:13.697Z,5.18
2022-11-19T18:26:41.468Z,5.88
2022-11-19T18:29:11.906Z,6.53
2022-11-19T18:31:43.965Z,5.70
2022-11-19T18:34:16.852Z,5.80
2022-11-19T18:36:44.438Z,5.63
2022-11-19T18:39:12.421Z,5.47
2022-11-19T18:41:40.250Z,5.55
2022-11-19T18:44:29.551Z,5.43
2022-11-19T18:46:57.186Z,5.85
2022-11-19T18:49:24.782Z,5.35
2022-11-19T18:51:52.921Z,5.10
2022-11-19T18:54:20.580Z,4.80
2022-11-19T18:56:48.240Z,6.20
2022-11-19T18:59:17.384Z,5.38
2022-11-19T19:01:45.390Z,5.50
2022-11-19T19:04:14.670Z,6.00
2022-11-19T19:06:42.964Z,5.03
2022-11-19T19:09:11.286Z,5.82
2022-11-19T19:11:57.154Z,5.30
2022-11-19T19:14:26.600Z,4.88
2022-11-19T19:16:54.650Z,4.90
2022-11-19T19:19:22.773Z,5.95
2022-11-19T19:21:50.829Z,4.47
2022-11-19T19:24:18.678Z,6.00
2022-11-19T19:26:46.342Z,4.45
2022-11-19T19:29:13.967Z,4.72
2022-11-19T19:31:43.002Z,4.65
2022-11-19T19:34:10.597Z,5.32
2022-11-19T19:36:38.152Z,5.03
2022-11-19T19:39:05.916Z,4.93
2022-11-19T19:41:33.565Z,5.43
2022-11-19T19:44:03.234Z,4.75
2022-11-19T19:46:31.554Z,4.57
2022-11-19T19:49:01.123Z,4.15
2022-11-19T19:51:30.210Z,4.50
2022-11-19T19:53:58.372Z,4.25
2022-11-19T19:56:28.594Z,3.80
2022-11-19T19:58:57.400Z,4.32
2022-11-19T20:01:26.560Z,3.88
2022-11-19T20:03:55.157Z,4.35
2022-11-19T20:06:24.478Z,4.10
2022-11-19T20:08:52.185Z,4.95
2022-11-19T20:11:22.210Z,4.32
2022-11-19T20:13:49.819Z,4.25
2022-11-19T20:16:19.328Z,4.32
2022-11-19T20:18:48.003Z,5.30
2022-11-19T20:21:17.151Z,4.07
2022-11-19T20:23:46.507Z,5.25
2022-11-19T20:26:15.652Z,3.78
2022-11-19T20:28:43.875Z,4.80
2022-11-19T20:31:13.534Z,4.47
2022-11-19T20:33:42.391Z,3.85
2022-11-19T20:36:11.668Z,4.40
2022-11-19T20:38:40.887Z,3.95
2022-11-19T20:41:31.626Z,4.18
2022-11-19T20:44:17.599Z,3.28
2022-11-19T20:46:45.908Z,3.40
2022-11-19T20:49:17.205Z,3.88
2022-11-19T20:51:46.144Z,3.50
2022-11-19T20:54:14.082Z,3.35
2022-11-19T20:56:43.568Z,3.63
2022-11-19T20:59:12.189Z,3.88
2022-11-19T21:01:40.223Z,3.75
2022-11-19T21:04:08.610Z,3.50
2022-11-19T21:06:36.170Z,3.90
2022-11-19T21:09:04.690Z,3.72
2022-11-19T21:11:33.145Z,3.53
2022-11-19T21:14:02.916Z,4.40
2022-11-19T21:16:31.532Z,3.15
2022-11-19T21:18:59.481Z,3.78
2022-11-19T21:21:27.568Z,3.85
2022-11-19T21:23:55.584Z,3.42
2022-11-19T21:26:24.995Z,3.28
2022-11-19T21:28:54.002Z,3.78
2022-11-19T21:31:37.676Z,3.22
2022-11-19T21:34:06.005Z,4.57
2022-11-19T21:36:33.817Z,3.13
2022-11-19T21:39:01.509Z,3.47
2022-11-19T21:41:29.116Z,2.85
2022-11-19T21:43:56.732Z,3.30
2022-11-19T21:46:25.903Z,3.72
2022-11-19T21:48:54.463Z,4.00
2022-11-19T21:51:24.828Z,3.80
2022-11-19T21:53:54.834Z,3.40
2022-11-19T21:56:22.460Z,4.28
2022-11-19T21:58:50.216Z,3.88
2022-11-19T22:01:17.994Z,3.70
2022-11-19T22:03:46.981Z,3.67
2022-11-19T22:06:14.736Z,4.10
2022-11-19T22:08:43.242Z,4.18
2022-11-19T22:11:26.258Z,3.83
2022-11-19T22:13:54.314Z,4.05
2022-11-19T22:16:22.440Z,3.85
2022-11-19T22:18:51.552Z,4.13
2022-11-19T22:21:19.089Z,4.00
2022-11-19T22:23:46.808Z,4.30
2022-11-19T22:26:15.472Z,3.53
2022-11-19T22:28:43.060Z,3.70
2022-11-19T22:31:11.307Z,3.20
2022-11-19T22:33:40.631Z,3.10
2022-11-19T22:36:11.127Z,3.70
2022-11-19T22:38:39.720Z,3.15
2022-11-19T22:41:09.569Z,3.00
2022-11-19T22:43:38.157Z,3.70
2022-11-19T22:46:06.697Z,4.07
2022-11-19T22:48:35.115Z,4.20
2022-11-19T22:51:06.493Z,4.25
2022-11-19T22:53:36.364Z,3.95
2022-11-19T22:56:05.986Z,4.07
2022-11-19T22:58:33.843Z,3.60
2022-11-19T23:01:01.525Z,3.80
2022-11-19T23:03:29.120Z,3.33
2022-11-19T23:05:59.099Z,3.45
2022-11-19T23:08:27.235Z,3.55
2022-11-19T23:11:00.373Z,4.50
2022-11-19T23:13:32.269Z,3.47
2022-11-19T23:16:05.812Z,4.10
2022-11-19T23:18:35.731Z,3.55
2022-11-19T23:21:06.842Z,3.38
2022-11-19T23:23:34.813Z,4.07
2022-11-19T23:26:05.871Z,3.65
2022-11-19T23:28:35.633Z,3.67
2022-11-19T23:31:04.632Z,3.72
2022-11-19T23:33:32.221Z,3.30
2022-11-19T23:36:04.940Z,3.08
2022-11-19T23:38:32.697Z,3.70
2022-11-19T23:41:00.804Z,3.10
2022-11-19T23:43:30.520Z,3.50
2022-11-19T23:46:05.044Z,3.65
2022-11-19T23:48:33.236Z,3.20
2022-11-19T23:51:02.360Z,3.85
2022-11-19T23:53:30.058Z,2.90
2022-11-19T23:55:59.886Z,3.22
2022-11-19T23:58:28.109Z,3.10
